sensor_id;sensor_type;location;lat;lon;timestamp;P1;durP1;ratioP1;P2;durP2;ratioP2
43823;SDS011;29470;53.550;9.926;2023-02-03T00:04:14;13.02;;;6.30;;
43823;SDS011;29470;53.550;9.926;2023-02-03T00:09:18;14.40;;;6.90;;
43823;SDS011;29470;53.550;9.926;2023-02-03T00:14:22;15.02;;;7.07;;
43823;SDS011;29470;53.550;9.926;2023-02-03T00:19:25;15.38;;;8.05;;
43823;SDS011;29470;53.550;9.926;2023-02-03T00:24:29;15.50;;;7.70;;
43823;SDS011;29470;53.550;9.926;2023-02-03T00:29:34;17.17;;;8.27;;
43823;SDS011;29470;53.550;9.926;2023-02-03T00:34:36;17.33;;;8.52;;
43823;SDS011;29470;53.550;9.926;2023-02-03T00:39:42;16.25;;;8.27;;
43823;SDS011;29470;53.550;9.926;2023-02-03T00:44:45;17.70;;;8.02;;
43823;SDS011;29470;53.550;9.926;2023-02-03T00:49:48;15.00;;;7.78;;
43823;SDS011;29470;53.550;9.926;2023-02-03T00:54:52;16.25;;;8.23;;
43823;SDS011;29470;53.550;9.926;2023-02-03T00:59:55;15.70;;;7.55;;
43823;SDS011;29470;53.550;9.926;2023-02-03T01:04:58;15.50;;;8.32;;
43823;SDS011;29470;53.550;9.926;2023-02-03T01:10:02;23.20;;;9.40;;
43823;SDS011;29470;53.550;9.926;2023-02-03T01:15:07;16.80;;;8.73;;
43823;SDS011;29470;53.550;9.926;2023-02-03T01:20:11;18.13;;;8.25;;
43823;SDS011;29470;53.550;9.926;2023-02-03T01:25:15;18.40;;;9.88;;
43823;SDS011;29470;53.550;9.926;2023-02-03T01:30:19;20.88;;;9.50;;
43823;SDS011;29470;53.550;9.926;2023-02-03T01:35:22;18.92;;;8.68;;
43823;SDS011;29470;53.550;9.926;2023-02-03T01:40:27;17.88;;;7.57;;
43823;SDS011;29470;53.550;9.926;2023-02-03T01:45:30;17.35;;;8.02;;
43823;SDS011;29470;53.550;9.926;2023-02-03T01:50:33;17.80;;;8.15;;
43823;SDS011;29470;53.550;9.926;2023-02-03T01:55:41;14.85;;;7.40;;
43823;SDS011;29470;53.550;9.926;2023-02-03T02:00:48;14.55;;;7.28;;
43823;SDS011;29470;53.550;9.926;2023-02-03T02:05:52;19.65;;;7.25;;
43823;SDS011;29470;53.550;9.926;2023-02-03T02:10:59;15.80;;;6.93;;
43823;SDS011;29470;53.550;9.926;2023-02-03T02:16:05;16.77;;;6.32;;
43823;SDS011;29470;53.550;9.926;2023-02-03T02:26:55;17.17;;;7.10;;
43823;SDS011;29470;53.550;9.926;2023-02-03T02:32:08;11.75;;;6.43;;
43823;SDS011;29470;53.550;9.926;2023-02-03T02:37:23;13.73;;;6.18;;
43823;SDS011;29470;53.550;9.926;2023-02-03T02:42:38;13.98;;;6.32;;
43823;SDS011;29470;53.550;9.926;2023-02-03T02:47:53;12.73;;;5.50;;
43823;SDS011;29470;53.550;9.926;2023-02-03T02:53:01;12.05;;;5.22;;
43823;SDS011;29470;53.550;9.926;2023-02-03T02:58:06;12.43;;;5.10;;
43823;SDS011;29470;53.550;9.926;2023-02-03T03:03:14;11.65;;;4.78;;
43823;SDS011;29470;53.550;9.926;2023-02-03T03:08:18;10.00;;;4.55;;
43823;SDS011;29470;53.550;9.926;2023-02-03T03:18:35;11.52;;;3.90;;
43823;SDS011;29470;53.550;9.926;2023-02-03T03:23:44;10.60;;;3.78;;
43823;SDS011;29470;53.550;9.926;2023-02-03T03:28:56;7.80;;;3.33;;
43823;SDS011;29470;53.550;9.926;2023-02-03T03:34:04;9.85;;;3.20;;
43823;SDS011;29470;53.550;9.926;2023-02-03T03:39:08;8.27;;;3.17;;
43823;SDS011;29470;53.550;9.926;2023-02-03T03:44:16;8.38;;;3.03;;
43823;SDS011;29470;53.550;9.926;2023-02-03T03:49:22;9.38;;;3.20;;
43823;SDS011;29470;53.550;9.926;2023-02-03T03:54:26;6.70;;;3.30;;
43823;SDS011;29470;53.550;9.926;2023-02-03T03:59:34;8.57;;;3.38;;
43823;SDS011;29470;53.550;9.926;2023-02-03T04:04:42;12.07;;;3.63;;
43823;SDS011;29470;53.550;9.926;2023-02-03T04:09:47;8.38;;;3.60;;
43823;SDS011;29470;53.550;9.926;2023-02-03T04:14:50;9.70;;;3.97;;
43823;SDS011;29470;53.550;9.926;2023-02-03T04:19:55;8.00;;;3.38;;
43823;SDS011;29470;53.550;9.926;2023-02-03T04:24:57;10.38;;;3.90;;
43823;SDS011;29470;53.550;9.926;2023-02-03T04:30:00;8.50;;;3.28;;
43823;SDS011;29470;53.550;9.926;2023-02-03T04:35:05;10.25;;;3.78;;
43823;SDS011;29470;53.550;9.926;2023-02-03T04:40:09;9.32;;;3.97;;
43823;SDS011;29470;53.550;9.926;2023-02-03T04:45:13;8.50;;;3.65;;
43823;SDS011;29470;53.550;9.926;2023-02-03T04:50:20;10.82;;;4.50;;
43823;SDS011;29470;53.550;9.926;2023-02-03T04:55:22;12.80;;;4.30;;
43823;SDS011;29470;53.550;9.926;2023-02-03T05:00:26;12.23;;;5.03;;
43823;SDS011;29470;53.550;9.926;2023-02-03T05:05:32;11.77;;;4.65;;
43823;SDS011;29470;53.550;9.926;2023-02-03T05:10:36;9.80;;;4.43;;
43823;SDS011;29470;53.550;9.926;2023-02-03T05:20:46;11.93;;;5.18;;
43823;SDS011;29470;53.550;9.926;2023-02-03T05:25:49;7.68;;;4.80;;
43823;SDS011;29470;53.550;9.926;2023-02-03T05:30:51;8.35;;;4.72;;
43823;SDS011;29470;53.550;9.926;2023-02-03T05:35:56;11.15;;;4.28;;
43823;SDS011;29470;53.550;9.926;2023-02-03T05:40:58;7.22;;;4.25;;
43823;SDS011;29470;53.550;9.926;2023-02-03T05:46:19;8.90;;;4.15;;
43823;SDS011;29470;53.550;9.926;2023-02-03T05:51:23;7.20;;;3.72;;
43823;SDS011;29470;53.550;9.926;2023-02-03T05:56:26;11.93;;;4.10;;
43823;SDS011;29470;53.550;9.926;2023-02-03T06:01:28;8.82;;;3.70;;
43823;SDS011;29470;53.550;9.926;2023-02-03T06:06:33;10.63;;;3.78;;
43823;SDS011;29470;53.550;9.926;2023-02-03T06:11:36;10.40;;;3.80;;
43823;SDS011;29470;53.550;9.926;2023-02-03T06:16:39;8.73;;;4.20;;
43823;SDS011;29470;53.550;9.926;2023-02-03T06:21:43;9.50;;;3.47;;
43823;SDS011;29470;53.550;9.926;2023-02-03T06:26:46;10.98;;;4.18;;
43823;SDS011;29470;53.550;9.926;2023-02-03T06:31:49;9.73;;;3.30;;
43823;SDS011;29470;53.550;9.926;2023-02-03T06:36:53;11.15;;;3.40;;
43823;SDS011;29470;53.550;9.926;2023-02-03T06:41:57;8.85;;;3.83;;
43823;SDS011;29470;53.550;9.926;2023-02-03T06:47:00;11.32;;;3.78;;
43823;SDS011;29470;53.550;9.926;2023-02-03T06:52:05;13.98;;;4.40;;
43823;SDS011;29470;53.550;9.926;2023-02-03T06:57:08;11.95;;;4.40;;
43823;SDS011;29470;53.550;9.926;2023-02-03T07:02:11;14.02;;;4.78;;
43823;SDS011;29470;53.550;9.926;2023-02-03T07:07:15;21.67;;;4.97;;
43823;SDS011;29470;53.550;9.926;2023-02-03T07:12:18;14.35;;;4.65;;
43823;SDS011;29470;53.550;9.926;2023-02-03T07:17:21;19.45;;;4.13;;
43823;SDS011;29470;53.550;9.926;2023-02-03T07:22:25;15.45;;;4.47;;
43823;SDS011;29470;53.550;9.926;2023-02-03T07:27:28;13.68;;;4.13;;
43823;SDS011;29470;53.550;9.926;2023-02-03T07:32:31;16.30;;;4.63;;
43823;SDS011;29470;53.550;9.926;2023-02-03T07:37:35;16.60;;;4.55;;
43823;SDS011;29470;53.550;9.926;2023-02-03T07:42:40;15.77;;;4.07;;
43823;SDS011;29470;53.550;9.926;2023-02-03T07:47:43;15.68;;;3.97;;
43823;SDS011;29470;53.550;9.926;2023-02-03T07:52:50;14.00;;;3.47;;
43823;SDS011;29470;53.550;9.926;2023-02-03T07:57:53;20.52;;;4.25;;
43823;SDS011;29470;53.550;9.926;2023-02-03T08:02:57;22.15;;;4.07;;
43823;SDS011;29470;53.550;9.926;2023-02-03T08:08:01;14.88;;;3.58;;
43823;SDS011;29470;53.550;9.926;2023-02-03T08:13:04;23.08;;;3.65;;
43823;SDS011;29470;53.550;9.926;2023-02-03T08:18:06;11.43;;;2.72;;
43823;SDS011;29470;53.550;9.926;2023-02-03T08:23:11;6.82;;;1.95;;
43823;SDS011;29470;53.550;9.926;2023-02-03T08:28:14;16.77;;;2.47;;
43823;SDS011;29470;53.550;9.926;2023-02-03T08:33:16;15.75;;;3.85;;
43823;SDS011;29470;53.550;9.926;2023-02-03T08:38:21;17.77;;;3.75;;
43823;SDS011;29470;53.550;9.926;2023-02-03T08:43:23;16.77;;;3.38;;
43823;SDS011;29470;53.550;9.926;2023-02-03T08:48:30;16.75;;;3.58;;
43823;SDS011;29470;53.550;9.926;2023-02-03T08:53:34;15.82;;;2.72;;
43823;SDS011;29470;53.550;9.926;2023-02-03T08:58:37;19.17;;;3.63;;
43823;SDS011;29470;53.550;9.926;2023-02-03T09:03:40;21.60;;;5.05;;
43823;SDS011;29470;53.550;9.926;2023-02-03T09:08:45;27.02;;;3.63;;
43823;SDS011;29470;53.550;9.926;2023-02-03T09:13:48;19.75;;;3.80;;
43823;SDS011;29470;53.550;9.926;2023-02-03T09:18:51;20.60;;;4.35;;
43823;SDS011;29470;53.550;9.926;2023-02-03T09:23:55;27.33;;;4.10;;
43823;SDS011;29470;53.550;9.926;2023-02-03T09:29:02;29.70;;;4.93;;
43823;SDS011;29470;53.550;9.926;2023-02-03T09:34:05;26.92;;;4.68;;
43823;SDS011;29470;53.550;9.926;2023-02-03T09:39:09;31.80;;;5.03;;
43823;SDS011;29470;53.550;9.926;2023-02-03T09:44:14;28.67;;;4.88;;
43823;SDS011;29470;53.550;9.926;2023-02-03T09:49:21;31.03;;;5.37;;
43823;SDS011;29470;53.550;9.926;2023-02-03T09:54:36;30.58;;;5.22;;
43823;SDS011;29470;53.550;9.926;2023-02-03T09:59:44;34.42;;;5.70;;
43823;SDS011;29470;53.550;9.926;2023-02-03T10:04:49;30.85;;;5.35;;
43823;SDS011;29470;53.550;9.926;2023-02-03T10:10:02;34.40;;;6.70;;
43823;SDS011;29470;53.550;9.926;2023-02-03T10:15:19;35.80;;;5.90;;
43823;SDS011;29470;53.550;9.926;2023-02-03T10:20:43;32.15;;;5.68;;
43823;SDS011;29470;53.550;9.926;2023-02-03T10:25:52;30.77;;;5.90;;
43823;SDS011;29470;53.550;9.926;2023-02-03T10:30:58;32.50;;;6.03;;
43823;SDS011;29470;53.550;9.926;2023-02-03T10:36:06;39.80;;;5.43;;
43823;SDS011;29470;53.550;9.926;2023-02-03T10:41:18;32.50;;;5.95;;
43823;SDS011;29470;53.550;9.926;2023-02-03T10:46:26;33.30;;;7.63;;
43823;SDS011;29470;53.550;9.926;2023-02-03T10:51:33;31.10;;;5.28;;
43823;SDS011;29470;53.550;9.926;2023-02-03T10:56:40;33.67;;;6.47;;
43823;SDS011;29470;53.550;9.926;2023-02-03T11:01:43;32.47;;;6.53;;
43823;SDS011;29470;53.550;9.926;2023-02-03T11:06:53;38.50;;;5.60;;
43823;SDS011;29470;53.550;9.926;2023-02-03T11:12:09;34.00;;;5.78;;
43823;SDS011;29470;53.550;9.926;2023-02-03T11:17:15;37.67;;;6.15;;
43823;SDS011;29470;53.550;9.926;2023-02-03T11:22:26;30.30;;;4.90;;
43823;SDS011;29470;53.550;9.926;2023-02-03T11:27:32;34.63;;;4.90;;
43823;SDS011;29470;53.550;9.926;2023-02-03T11:32:36;27.77;;;4.78;;
43823;SDS011;29470;53.550;9.926;2023-02-03T11:37:42;30.42;;;5.10;;
43823;SDS011;29470;53.550;9.926;2023-02-03T11:42:58;29.90;;;5.53;;
43823;SDS011;29470;53.550;9.926;2023-02-03T11:48:13;29.90;;;5.15;;
43823;SDS011;29470;53.550;9.926;2023-02-03T11:53:28;29.98;;;5.05;;
43823;SDS011;29470;53.550;9.926;2023-02-03T11:59:01;31.73;;;5.10;;
43823;SDS011;29470;53.550;9.926;2023-02-03T12:04:37;35.92;;;5.13;;
43823;SDS011;29470;53.550;9.926;2023-02-03T12:09:55;33.05;;;4.57;;
43823;SDS011;29470;53.550;9.926;2023-02-03T12:15:13;30.55;;;5.20;;
43823;SDS011;29470;53.550;9.926;2023-02-03T12:20:30;26.48;;;4.93;;
43823;SDS011;29470;53.550;9.926;2023-02-03T12:25:45;25.00;;;5.15;;
43823;SDS011;29470;53.550;9.926;2023-02-03T12:30:59;24.92;;;5.13;;
43823;SDS011;29470;53.550;9.926;2023-02-03T12:36:10;27.70;;;4.53;;
43823;SDS011;29470;53.550;9.926;2023-02-03T12:41:19;26.73;;;4.70;;
43823;SDS011;29470;53.550;9.926;2023-02-03T12:46:28;26.27;;;4.88;;
43823;SDS011;29470;53.550;9.926;2023-02-03T12:51:37;27.92;;;5.45;;
43823;SDS011;29470;53.550;9.926;2023-02-03T12:56:43;23.52;;;4.47;;
43823;SDS011;29470;53.550;9.926;2023-02-03T13:01:53;24.48;;;4.00;;
43823;SDS011;29470;53.550;9.926;2023-02-03T13:07:00;22.38;;;4.13;;
43823;SDS011;29470;53.550;9.926;2023-02-03T13:12:10;24.52;;;4.18;;
43823;SDS011;29470;53.550;9.926;2023-02-03T13:22:25;26.63;;;4.43;;
43823;SDS011;29470;53.550;9.926;2023-02-03T13:27:36;33.45;;;5.45;;
43823;SDS011;29470;53.550;9.926;2023-02-03T13:32:52;22.55;;;3.80;;
43823;SDS011;29470;53.550;9.926;2023-02-03T13:38:24;30.70;;;4.85;;
43823;SDS011;29470;53.550;9.926;2023-02-03T13:43:36;26.23;;;4.60;;
43823;SDS011;29470;53.550;9.926;2023-02-03T13:48:43;24.20;;;4.68;;
43823;SDS011;29470;53.550;9.926;2023-02-03T13:53:48;28.17;;;4.65;;
43823;SDS011;29470;53.550;9.926;2023-02-03T13:59:01;32.53;;;5.00;;
43823;SDS011;29470;53.550;9.926;2023-02-03T14:04:49;26.27;;;4.15;;
43823;SDS011;29470;53.550;9.926;2023-02-03T14:10:04;25.35;;;6.07;;
43823;SDS011;29470;53.550;9.926;2023-02-03T14:15:17;25.75;;;4.57;;
43823;SDS011;29470;53.550;9.926;2023-02-03T14:25:57;22.60;;;4.28;;
43823;SDS011;29470;53.550;9.926;2023-02-03T14:36:29;36.03;;;5.05;;
43823;SDS011;29470;53.550;9.926;2023-02-03T14:41:49;28.38;;;4.28;;
43823;SDS011;29470;53.550;9.926;2023-02-03T14:47:03;73.93;;;9.57;;
43823;SDS011;29470;53.550;9.926;2023-02-03T14:52:27;23.15;;;4.05;;
43823;SDS011;29470;53.550;9.926;2023-02-03T14:57:42;29.63;;;5.07;;
43823;SDS011;29470;53.550;9.926;2023-02-03T15:08:31;31.08;;;6.03;;
43823;SDS011;29470;53.550;9.926;2023-02-03T15:13:37;38.38;;;6.53;;
43823;SDS011;29470;53.550;9.926;2023-02-03T15:18:40;27.35;;;4.50;;
43823;SDS011;29470;53.550;9.926;2023-02-03T15:23:45;34.97;;;5.30;;
43823;SDS011;29470;53.550;9.926;2023-02-03T15:28:53;35.35;;;5.57;;
43823;SDS011;29470;53.550;9.926;2023-02-03T15:33:57;27.63;;;5.25;;
43823;SDS011;29470;53.550;9.926;2023-02-03T15:39:12;26.42;;;4.85;;
43823;SDS011;29470;53.550;9.926;2023-02-03T15:44:24;34.05;;;5.00;;
43823;SDS011;29470;53.550;9.926;2023-02-03T15:49:31;29.50;;;4.75;;
43823;SDS011;29470;53.550;9.926;2023-02-03T15:54:41;34.17;;;5.28;;
43823;SDS011;29470;53.550;9.926;2023-02-03T15:59:51;29.90;;;4.55;;
43823;SDS011;29470;53.550;9.926;2023-02-03T16:04:56;34.17;;;6.20;;
43823;SDS011;29470;53.550;9.926;2023-02-03T16:10:01;32.42;;;5.88;;
43823;SDS011;29470;53.550;9.926;2023-02-03T16:15:04;30.58;;;4.88;;
43823;SDS011;29470;53.550;9.926;2023-02-03T16:20:21;27.67;;;5.60;;
43823;SDS011;29470;53.550;9.926;2023-02-03T16:25:30;33.30;;;4.72;;
43823;SDS011;29470;53.550;9.926;2023-02-03T16:30:34;40.63;;;6.70;;
43823;SDS011;29470;53.550;9.926;2023-02-03T16:35:56;30.48;;;5.72;;
43823;SDS011;29470;53.550;9.926;2023-02-03T16:41:19;30.02;;;5.18;;
43823;SDS011;29470;53.550;9.926;2023-02-03T16:46:39;27.58;;;4.43;;
43823;SDS011;29470;53.550;9.926;2023-02-03T16:52:00;28.73;;;5.47;;
43823;SDS011;29470;53.550;9.926;2023-02-03T16:57:08;34.83;;;4.78;;
43823;SDS011;29470;53.550;9.926;2023-02-03T17:02:10;35.58;;;5.47;;
43823;SDS011;29470;53.550;9.926;2023-02-03T17:07:13;34.30;;;5.22;;
43823;SDS011;29470;53.550;9.926;2023-02-03T17:12:18;26.45;;;5.47;;
43823;SDS011;29470;53.550;9.926;2023-02-03T17:17:20;29.50;;;5.57;;
43823;SDS011;29470;53.550;9.926;2023-02-03T17:22:23;30.15;;;4.45;;
43823;SDS011;29470;53.550;9.926;2023-02-03T17:27:28;37.88;;;5.93;;
43823;SDS011;29470;53.550;9.926;2023-02-03T17:32:31;40.92;;;5.70;;
43823;SDS011;29470;53.550;9.926;2023-02-03T17:37:34;43.30;;;6.35;;
43823;SDS011;29470;53.550;9.926;2023-02-03T17:42:39;38.22;;;5.85;;
43823;SDS011;29470;53.550;9.926;2023-02-03T17:47:59;31.42;;;4.72;;
43823;SDS011;29470;53.550;9.926;2023-02-03T17:53:21;46.10;;;6.93;;
43823;SDS011;29470;53.550;9.926;2023-02-03T17:58:25;37.47;;;5.95;;
43823;SDS011;29470;53.550;9.926;2023-02-03T18:03:28;41.17;;;7.97;;
43823;SDS011;29470;53.550;9.926;2023-02-03T18:08:31;36.83;;;6.20;;
43823;SDS011;29470;53.550;9.926;2023-02-03T18:13:35;37.42;;;5.97;;
43823;SDS011;29470;53.550;9.926;2023-02-03T18:18:39;33.72;;;5.57;;
43823;SDS011;29470;53.550;9.926;2023-02-03T18:23:42;43.83;;;6.03;;
43823;SDS011;29470;53.550;9.926;2023-02-03T18:28:49;32.75;;;5.30;;
43823;SDS011;29470;53.550;9.926;2023-02-03T18:33:54;27.02;;;4.65;;
43823;SDS011;29470;53.550;9.926;2023-02-03T18:38:57;28.25;;;4.18;;
43823;SDS011;29470;53.550;9.926;2023-02-03T18:44:02;24.40;;;4.70;;
43823;SDS011;29470;53.550;9.926;2023-02-03T18:49:06;40.78;;;6.10;;
43823;SDS011;29470;53.550;9.926;2023-02-03T18:54:10;43.22;;;8.15;;
43823;SDS011;29470;53.550;9.926;2023-02-03T18:59:15;39.08;;;6.88;;
43823;SDS011;29470;53.550;9.926;2023-02-03T19:04:18;38.40;;;6.10;;
43823;SDS011;29470;53.550;9.926;2023-02-03T19:09:22;31.85;;;5.85;;
43823;SDS011;29470;53.550;9.926;2023-02-03T19:14:27;43.45;;;6.40;;
43823;SDS011;29470;53.550;9.926;2023-02-03T19:19:30;37.42;;;6.55;;
43823;SDS011;29470;53.550;9.926;2023-02-03T19:24:42;34.72;;;6.60;;
43823;SDS011;29470;53.550;9.926;2023-02-03T19:44:34;32.90;;;4.85;;
43823;SDS011;29470;53.550;9.926;2023-02-03T19:49:38;17.98;;;3.45;;
43823;SDS011;29470;53.550;9.926;2023-02-03T19:54:45;22.95;;;4.70;;
43823;SDS011;29470;53.550;9.926;2023-02-03T19:59:49;23.02;;;4.05;;
43823;SDS011;29470;53.550;9.926;2023-02-03T20:04:52;21.13;;;2.95;;
43823;SDS011;29470;53.550;9.926;2023-02-03T20:09:56;14.70;;;2.83;;
43823;SDS011;29470;53.550;9.926;2023-02-03T20:14:59;11.10;;;2.38;;
43823;SDS011;29470;53.550;9.926;2023-02-03T20:20:03;11.70;;;2.35;;
43823;SDS011;29470;53.550;9.926;2023-02-03T20:25:08;9.30;;;1.75;;
43823;SDS011;29470;53.550;9.926;2023-02-03T20:30:11;13.82;;;2.00;;
43823;SDS011;29470;53.550;9.926;2023-02-03T20:35:15;9.13;;;1.73;;
43823;SDS011;29470;53.550;9.926;2023-02-03T20:40:20;11.35;;;1.98;;
43823;SDS011;29470;53.550;9.926;2023-02-03T20:45:24;8.93;;;2.17;;
43823;SDS011;29470;53.550;9.926;2023-02-03T20:50:28;12.10;;;1.83;;
43823;SDS011;29470;53.550;9.926;2023-02-03T20:55:43;8.32;;;1.92;;
43823;SDS011;29470;53.550;9.926;2023-02-03T21:00:46;6.60;;;1.50;;
43823;SDS011;29470;53.550;9.926;2023-02-03T21:05:49;8.32;;;1.50;;
43823;SDS011;29470;53.550;9.926;2023-02-03T21:10:54;4.45;;;1.40;;
43823;SDS011;29470;53.550;9.926;2023-02-03T21:15:57;5.68;;;1.50;;
43823;SDS011;29470;53.550;9.926;2023-02-03T21:21:04;7.18;;;1.80;;
43823;SDS011;29470;53.550;9.926;2023-02-03T21:26:18;5.75;;;1.30;;
43823;SDS011;29470;53.550;9.926;2023-02-03T21:31:25;3.58;;;1.10;;
43823;SDS011;29470;53.550;9.926;2023-02-03T21:36:32;2.42;;;1.05;;
43823;SDS011;29470;53.550;9.926;2023-02-03T21:41:41;8.73;;;1.35;;
43823;SDS011;29470;53.550;9.926;2023-02-03T21:46:46;4.10;;;1.10;;
43823;SDS011;29470;53.550;9.926;2023-02-03T21:51:49;2.92;;;0.70;;
43823;SDS011;29470;53.550;9.926;2023-02-03T21:56:53;3.45;;;1.33;;
43823;SDS011;29470;53.550;9.926;2023-02-03T22:02:00;1.00;;;0.60;;
43823;SDS011;29470;53.550;9.926;2023-02-03T22:07:42;2.67;;;0.80;;
43823;SDS011;29470;53.550;9.926;2023-02-03T22:19:08;2.47;;;0.90;;
43823;SDS011;29470;53.550;9.926;2023-02-03T22:24:17;3.38;;;1.10;;
43823;SDS011;29470;53.550;9.926;2023-02-03T22:29:39;1.95;;;1.20;;
43823;SDS011;29470;53.550;9.926;2023-02-03T22:35:12;2.80;;;1.20;;
43823;SDS011;29470;53.550;9.926;2023-02-03T22:40:40;3.60;;;1.17;;
43823;SDS011;29470;53.550;9.926;2023-02-03T22:46:08;2.90;;;1.42;;
43823;SDS011;29470;53.550;9.926;2023-02-03T22:51:33;4.00;;;1.30;;
43823;SDS011;29470;53.550;9.926;2023-02-03T22:56:42;4.10;;;1.30;;
43823;SDS011;29470;53.550;9.926;2023-02-03T23:08:31;4.07;;;1.13;;
43823;SDS011;29470;53.550;9.926;2023-02-03T23:20:28;2.42;;;1.15;;
43823;SDS011;29470;53.550;9.926;2023-02-03T23:25:33;3.50;;;1.60;;
43823;SDS011;29470;53.550;9.926;2023-02-03T23:30:35;2.38;;;1.13;;
43823;SDS011;29470;53.550;9.926;2023-02-03T23:35:39;4.18;;;1.45;;
43823;SDS011;29470;53.550;9.926;2023-02-03T23:40:49;4.45;;;1.60;;
43823;SDS011;29470;53.550;9.926;2023-02-03T23:45:54;2.92;;;1.27;;
43823;SDS011;29470;53.550;9.926;2023-02-03T23:50:57;2.92;;;1.05;;
43823;SDS011;29470;53.550;9.926;2023-02-03T23:56:01;3.75;;;1.30;;
